Phoenix, AZ (85023)

12:48 AM MST on July 30, 2016 (GMT -0700)
TrickShot's Temple of Precious Things | | Change Station

Elev 1339 ft 33.63 °N, 112.13 °W | Updated 13 seconds ago

Overcast
Overcast
81.1 °F
Feels Like 83 °F
N
8.1
Wind Variable Wind from NE
Gusts 12.3 mph

Today
High -- | Low -- °F
--% Chance of Precip.
Yesterday
High -- | Low -- °F
Precip. -- in
Pressure 29.81 in
Visibility 10.0 miles
Clouds Few 8500 ft
Scattered Clouds 11000 ft
Heat Index 83 °F
Dew Point 67 °F
Humidity 61%
Rainfall 0.00 in
Snow Depth Not available.
5:39 AM 7:29 PM
Waning Crescent, 15% visible
METAR KDVT 300653Z 33008KT 10SM -RA FEW085 SCT110 27/19 A2989 RMK AO2 RAB27 SLP092 P0000 T02720189 404330267
Pressure 29.81 in
Visibility 10.0 miles
Clouds Few 8500 ft
Scattered Clouds 11000 ft
Heat Index 83 °F
Dew Point 67 °F
Humidity 61%
Rainfall 0.00 in
Snow Depth Not available.
5:39 AM 7:29 PM
Waning Crescent, 15% visible
METAR KDVT 300653Z 33008KT 10SM -RA FEW085 SCT110 27/19 A2989 RMK AO2 RAB27 SLP092 P0000 T02720189 404330267

10-Day Weather Forecast

Almanac

Astronomy

Jul. 30, 2016 Rise Set
Actual Time
Civil Twilight
Nautical Twilight
Astronomical Twilight
Moon
Length of Visible Light
Length of Day
Tomorrow will be .
, % of the Moon is Illuminated

Today's Extremes

State Highs State Lows

Community

WunderPhotos

Upload Photos

1,928,508 photos uploaded!

WunderBlog® & News

Nearby

Air Quality

  Air Quality AQ Index Pollutant
Not available.

Snow Depth

Station Depth Elevation

Earthquake Activity

City Distance Mag. Time & Date
Minimum magnitude displayed is 2.5.

Coastal Water Temperatures

Place Temperature

Stations

Nearby Weather Stations

Station Location Temp. Windchill Dew Point Humidity Wind Precip. Elev Updated Type
                   

Watches & Warnings

Areal Flood Advisory
Issued: 10:39 PM MDT Jul. 29, 2016 – National Weather Service

The National Weather Service in Phoenix has issued a

* Urban and Small Stream Flood Advisory for...
southwestern Maricopa County in south central Arizona...

* until 145 am MST

* at 1039 PM MST... Doppler radar indicated heavy rain due to
thunderstorms. This will cause Urban and Small Stream flooding in
the advisory area.

* Some locations that will experience flooding include...
Gila Bend... Gila Bend auxiliary field... Bosque...
State Route 85 from and south of Gila Bend...
portions of Interstate 8 around Gila Bend.

Precautionary/preparedness actions...

Be especially cautious at night when it is harder to recognize the
dangers of flooding.

In hilly terrain there are hundreds of low water crossings which are
potentially dangerous in heavy rain. Do not attempt to cross flooded
roads. Find an alternate Route.


Lat... Lon 3300 11259 3289 11252 3272 11262 3270 11300
      3295 11312


Nolte